createdAt,value
2022-08-22T00:01:44.947Z,21.29
2022-08-22T00:02:41.623Z,25.26
2022-08-22T00:02:49.564Z,23.08
2022-08-22T00:03:01.690Z,23.81
2022-08-22T00:03:04.494Z,25.22
2022-08-22T00:03:06.789Z,21.97
2022-08-22T00:04:25.202Z,21.21
2022-08-22T00:07:05.332Z,21.19
2022-08-22T00:09:42.388Z,21.14
2022-08-22T00:12:24.924Z,21.06
2022-08-22T00:15:07.096Z,20.97
2022-08-22T00:17:49.593Z,20.91
2022-08-22T00:20:35.982Z,20.81
2022-08-22T00:23:12.019Z,20.76
2022-08-22T00:25:58.980Z,20.72
2022-08-22T00:28:50.122Z,20.65
2022-08-22T00:31:32.145Z,20.58
2022-08-22T00:34:10.521Z,20.58
2022-08-22T00:37:10.939Z,20.59
2022-08-22T00:40:03.558Z,20.57
2022-08-22T00:42:53.543Z,20.53
2022-08-22T00:45:33.525Z,20.47
2022-08-22T00:48:33.847Z,20.48
2022-08-22T00:51:18.697Z,20.44
2022-08-22T00:54:25.746Z,20.41
2022-08-22T00:57:02.933Z,20.39
2022-08-22T01:00:14.120Z,20.37
2022-08-22T01:03:13.786Z,20.42
2022-08-22T01:05:57.522Z,20.43
2022-08-22T01:08:37.923Z,20.40
2022-08-22T01:11:26.543Z,20.35
2022-08-22T01:14:35.405Z,20.35
2022-08-22T01:17:29.631Z,20.38
2022-08-22T01:20:00.816Z,20.34
2022-08-22T01:22:41.185Z,20.31
2022-08-22T01:25:30.775Z,20.33
2022-08-22T01:28:27.533Z,20.32
2022-08-22T01:31:20.783Z,20.24
2022-08-22T01:34:07.166Z,20.24
2022-08-22T01:37:21.091Z,20.24
2022-08-22T01:40:09.966Z,20.19
2022-08-22T01:42:40.970Z,20.11
2022-08-22T01:45:14.687Z,20.04
2022-08-22T01:47:48.421Z,20.00
2022-08-22T01:50:34.625Z,20.01
2022-08-22T01:53:09.051Z,20.05
2022-08-22T01:55:59.524Z,20.00
2022-08-22T01:58:31.111Z,19.96
2022-08-22T02:01:11.065Z,19.94
2022-08-22T02:03:51.420Z,19.92
2022-08-22T02:06:45.977Z,19.92
2022-08-22T02:09:45.230Z,19.91
2022-08-22T02:12:22.296Z,19.89
2022-08-22T02:15:43.945Z,19.82
2022-08-22T02:18:27.224Z,19.74
2022-08-22T02:21:27.618Z,19.68
2022-08-22T02:24:03.212Z,19.63
2022-08-22T02:26:37.029Z,19.56
2022-08-22T02:29:09.176Z,19.52
2022-08-22T02:31:48.022Z,19.50
2022-08-22T02:34:39.851Z,19.51
2022-08-22T02:37:21.916Z,19.50
2022-08-22T02:40:09.284Z,19.44
2022-08-22T02:42:43.196Z,19.40
2022-08-22T02:45:17.132Z,19.36
2022-08-22T02:48:19.800Z,19.36
2022-08-22T02:51:16.939Z,19.38
2022-08-22T02:53:50.727Z,19.38
2022-08-22T02:56:28.390Z,19.40
2022-08-22T02:59:12.914Z,19.41
2022-08-22T03:01:45.740Z,19.40
2022-08-22T03:04:27.054Z,19.38
2022-08-22T03:07:13.458Z,19.42
2022-08-22T03:10:00.171Z,19.40
2022-08-22T03:13:09.594Z,19.41
2022-08-22T03:16:13.390Z,19.33
2022-08-22T03:18:48.727Z,19.27
2022-08-22T03:21:28.491Z,19.28
2022-08-22T03:24:08.357Z,19.30
2022-08-22T03:26:53.288Z,19.32
2022-08-22T03:29:31.093Z,19.32
2022-08-22T03:32:24.244Z,19.29
2022-08-22T03:35:08.509Z,19.28
2022-08-22T03:37:43.037Z,19.29
2022-08-22T03:40:20.295Z,19.31
2022-08-22T03:43:10.084Z,19.35
2022-08-22T03:45:59.983Z,19.38
2022-08-22T03:49:02.631Z,19.42
2022-08-22T03:51:49.105Z,19.48
2022-08-22T03:54:26.557Z,19.50
2022-08-22T03:57:07.805Z,19.51
2022-08-22T04:00:12.180Z,19.47
2022-08-22T04:02:55.422Z,19.33
2022-08-22T04:05:53.295Z,19.19
2022-08-22T04:08:55.750Z,19.09
2022-08-22T04:11:49.980Z,19.05
2022-08-22T04:14:33.234Z,19.07
2022-08-22T04:17:20.645Z,19.13
2022-08-22T04:20:21.095Z,19.20
2022-08-22T04:23:26.845Z,19.29
2022-08-22T04:26:29.670Z,19.35
2022-08-22T04:29:08.399Z,19.43
2022-08-22T04:31:46.609Z,19.46
2022-08-22T04:34:26.984Z,19.52
2022-08-22T04:37:01.979Z,19.63
2022-08-22T04:39:45.558Z,19.70
2022-08-22T04:42:32.561Z,19.77
2022-08-22T04:45:04.778Z,19.85
2022-08-22T04:47:35.851Z,19.90
2022-08-22T04:50:16.005Z,19.94
2022-08-22T04:52:47.005Z,20.00
2022-08-22T04:55:42.603Z,20.03
2022-08-22T04:58:45.739Z,20.09
2022-08-22T05:01:16.963Z,20.19
2022-08-22T05:03:51.761Z,20.27
2022-08-22T05:06:26.634Z,20.37
2022-08-22T05:09:00.657Z,20.47
2022-08-22T05:11:31.741Z,20.59
2022-08-22T05:14:09.070Z,20.70
2022-08-22T05:16:41.301Z,20.81
2022-08-22T05:19:24.972Z,20.91
2022-08-22T05:21:56.172Z,21.02
2022-08-22T05:24:32.439Z,21.09
2022-08-22T05:27:18.413Z,21.21
2022-08-22T05:29:53.876Z,21.28
2022-08-22T05:32:31.151Z,21.37
2022-08-22T05:35:05.009Z,21.48
2022-08-22T05:37:53.548Z,21.59
2022-08-22T05:40:26.387Z,21.68
2022-08-22T05:42:56.937Z,21.77
2022-08-22T05:45:27.609Z,21.85
2022-08-22T05:48:18.643Z,21.95
2022-08-22T05:50:58.865Z,22.03
2022-08-22T05:53:41.616Z,22.11
2022-08-22T05:56:22.524Z,22.18
2022-08-22T05:58:56.979Z,22.28
2022-08-22T06:01:32.444Z,22.37
2022-08-22T06:04:12.690Z,22.46
2022-08-22T06:06:50.435Z,22.58
2022-08-22T06:09:35.327Z,22.73
2022-08-22T06:12:26.568Z,22.84
2022-08-22T06:15:11.686Z,22.94
2022-08-22T06:18:01.265Z,23.03
2022-08-22T06:20:46.267Z,23.12
2022-08-22T06:23:26.744Z,23.20
2022-08-22T06:25:59.666Z,23.30
2022-08-22T06:31:29.055Z,23.59
2022-08-22T06:34:23.096Z,23.67
2022-08-22T06:36:53.292Z,23.83
2022-08-22T06:39:24.122Z,23.91
2022-08-22T06:42:04.942Z,24.05
2022-08-22T06:44:38.478Z,24.18
2022-08-22T06:47:08.774Z,24.28
2022-08-22T06:49:39.315Z,24.42
2022-08-22T06:52:25.224Z,24.57
2022-08-22T06:55:06.245Z,24.74
2022-08-22T06:57:46.633Z,24.92
2022-08-22T07:00:17.344Z,25.06
2022-08-22T07:03:23.864Z,25.19
2022-08-22T07:05:55.277Z,25.32
2022-08-22T07:08:26.682Z,25.44
2022-08-22T07:11:17.654Z,25.58
2022-08-22T07:13:57.402Z,25.73
2022-08-22T07:16:33.099Z,25.86
2022-08-22T07:19:01.612Z,25.96
2022-08-22T07:21:43.685Z,26.07
2022-08-22T07:24:22.230Z,26.23
2022-08-22T07:26:50.249Z,26.28
2022-08-22T07:29:44.648Z,26.35
2022-08-22T07:32:28.294Z,26.48
2022-08-22T07:35:18.124Z,26.63
2022-08-22T07:38:00.048Z,26.79
2022-08-22T07:40:35.893Z,26.94
2022-08-22T07:43:17.738Z,27.02
2022-08-22T07:46:21.053Z,27.12
2022-08-22T07:49:08.582Z,27.21
2022-08-22T07:51:48.261Z,27.30
2022-08-22T07:54:48.771Z,27.45
2022-08-22T07:57:38.193Z,27.54
2022-08-22T08:00:15.155Z,27.72
2022-08-22T08:03:00.794Z,28.01
2022-08-22T08:05:33.116Z,28.37
2022-08-22T08:08:15.579Z,28.66
2022-08-22T08:10:45.509Z,28.95
2022-08-22T08:13:21.603Z,29.12
2022-08-22T08:15:54.118Z,29.54
2022-08-22T08:18:26.757Z,29.77
2022-08-22T08:21:00.584Z,29.95
2022-08-22T08:23:31.658Z,30.12
2022-08-22T08:26:17.581Z,30.18
2022-08-22T08:28:51.486Z,30.39
2022-08-22T08:31:28.743Z,30.74
2022-08-22T08:34:08.597Z,31.01
2022-08-22T08:36:53.334Z,31.18
2022-08-22T08:39:35.429Z,31.30
2022-08-22T08:42:32.346Z,31.72
2022-08-22T08:45:56.368Z,31.73
2022-08-22T08:48:47.678Z,31.30
2022-08-22T08:51:40.539Z,31.58
2022-08-22T08:55:19.727Z,31.67
2022-08-22T08:58:10.397Z,30.98
2022-08-22T09:00:42.500Z,30.73
2022-08-22T09:03:41.819Z,30.33
2022-08-22T09:06:16.810Z,29.76
2022-08-22T09:09:20.606Z,29.39
2022-08-22T09:12:14.776Z,28.98
2022-08-22T09:14:47.129Z,28.77
2022-08-22T09:17:40.213Z,28.72
2022-08-22T09:20:24.461Z,28.90
2022-08-22T09:23:13.197Z,29.01
2022-08-22T09:26:02.070Z,29.62
2022-08-22T09:28:42.065Z,30.39
2022-08-22T09:32:00.176Z,31.02
2022-08-22T09:34:41.333Z,31.61
2022-08-22T09:37:20.177Z,31.17
2022-08-22T09:40:16.196Z,30.63
2022-08-22T09:43:06.817Z,30.10
2022-08-22T09:45:50.287Z,29.78
2022-08-22T09:48:46.961Z,29.61
2022-08-22T09:51:38.856Z,29.43
2022-08-22T09:54:16.336Z,29.23
2022-08-22T09:57:13.815Z,29.17
2022-08-22T09:59:45.766Z,29.17
2022-08-22T10:02:43.336Z,29.14
2022-08-22T10:06:00.578Z,29.01
2022-08-22T10:08:45.880Z,28.98
2022-08-22T10:11:15.428Z,29.74
2022-08-22T10:14:02.423Z,30.88
2022-08-22T10:16:53.421Z,31.75
2022-08-22T10:19:43.092Z,31.93
2022-08-22T10:22:32.733Z,32.34
2022-08-22T10:25:24.137Z,32.38
2022-08-22T10:28:10.604Z,31.51
2022-08-22T10:30:54.995Z,31.07
2022-08-22T10:33:50.029Z,30.79
2022-08-22T10:36:31.547Z,30.56
2022-08-22T10:39:04.418Z,30.47
2022-08-22T10:41:55.932Z,30.40
2022-08-22T10:44:49.306Z,30.22
2022-08-22T10:47:59.540Z,30.15
2022-08-22T10:50:36.973Z,30.31
2022-08-22T10:53:30.767Z,30.36
2022-08-22T10:56:07.512Z,30.29
2022-08-22T10:59:04.133Z,30.47
2022-08-22T11:01:41.727Z,30.68
2022-08-22T11:04:31.947Z,30.56
2022-08-22T11:07:17.129Z,30.38
2022-08-22T11:09:57.474Z,30.30
2022-08-22T11:12:34.680Z,30.18
2022-08-22T11:15:49.704Z,30.15
2022-08-22T11:18:25.453Z,30.07
2022-08-22T11:21:08.436Z,30.06
2022-08-22T11:23:37.502Z,30.08
2022-08-22T11:26:41.695Z,30.13
2022-08-22T11:29:44.311Z,30.30
2022-08-22T11:32:49.798Z,30.56
2022-08-22T11:35:56.216Z,30.89
2022-08-22T11:38:50.282Z,31.13
2022-08-22T11:41:30.402Z,31.37
2022-08-22T11:44:12.909Z,31.62
2022-08-22T11:46:46.218Z,31.65
2022-08-22T11:49:25.777Z,31.48
2022-08-22T11:51:58.028Z,31.64
2022-08-22T11:54:35.872Z,31.74
2022-08-22T11:57:09.199Z,31.65
2022-08-22T12:00:07.158Z,31.51
2022-08-22T12:02:47.924Z,31.20
2022-08-22T12:05:26.391Z,30.98
2022-08-22T12:08:06.464Z,30.89
2022-08-22T12:10:43.068Z,30.78
2022-08-22T12:13:41.925Z,30.60
2022-08-22T12:16:23.309Z,30.26
2022-08-22T12:19:23.830Z,30.03
2022-08-22T12:22:10.672Z,29.80
2022-08-22T12:25:06.180Z,29.71
2022-08-22T12:28:05.589Z,29.67
2022-08-22T12:30:39.707Z,29.67
2022-08-22T12:33:42.208Z,29.65
2022-08-22T12:36:20.215Z,29.63
2022-08-22T12:39:20.698Z,29.62
2022-08-22T12:42:21.386Z,29.58
2022-08-22T12:45:20.237Z,29.55
2022-08-22T12:48:29.721Z,29.56
2022-08-22T12:51:22.932Z,29.59
2022-08-22T12:54:23.102Z,29.60
2022-08-22T12:57:00.377Z,29.62
2022-08-22T12:59:41.721Z,29.64
2022-08-22T13:02:18.039Z,29.67
2022-08-22T13:04:55.431Z,29.70
2022-08-22T13:07:35.186Z,29.70
2022-08-22T13:10:41.643Z,29.73
2022-08-22T13:13:36.928Z,29.72
2022-08-22T13:16:11.713Z,29.74
2022-08-22T13:18:53.471Z,29.77
2022-08-22T13:21:31.470Z,29.81
2022-08-22T13:24:11.916Z,29.86
2022-08-22T13:26:49.211Z,29.89
2022-08-22T13:29:27.515Z,29.90
2022-08-22T13:32:16.818Z,29.93
2022-08-22T13:34:52.440Z,29.96
2022-08-22T13:37:31.827Z,30.00
2022-08-22T13:40:04.641Z,30.08
2022-08-22T13:42:43.965Z,30.09
2022-08-22T13:45:24.202Z,30.12
2022-08-22T13:47:58.556Z,30.20
2022-08-22T13:50:37.517Z,30.26
2022-08-22T13:54:21.538Z,30.34
2022-08-22T13:57:18.780Z,30.50
2022-08-22T14:00:06.347Z,30.63
2022-08-22T14:02:47.064Z,30.75
2022-08-22T14:05:28.717Z,30.79
2022-08-22T14:08:12.893Z,30.75
2022-08-22T14:10:55.171Z,30.73
2022-08-22T14:13:36.726Z,30.67
2022-08-22T14:16:10.607Z,30.74
2022-08-22T14:18:50.260Z,30.86
2022-08-22T14:21:42.669Z,30.94
2022-08-22T14:24:45.356Z,30.97
2022-08-22T14:27:26.980Z,30.81
2022-08-22T14:30:20.461Z,30.61
2022-08-22T14:32:54.490Z,30.51
2022-08-22T14:35:35.245Z,30.44
2022-08-22T14:38:30.082Z,30.37
2022-08-22T14:41:14.540Z,30.27
2022-08-22T14:43:49.574Z,30.21
2022-08-22T14:46:33.783Z,30.14
2022-08-22T14:49:11.530Z,30.09
2022-08-22T14:51:51.316Z,30.04
2022-08-22T14:54:22.776Z,30.01
2022-08-22T14:56:59.688Z,29.96
2022-08-22T14:59:50.282Z,29.91
2022-08-22T15:02:37.111Z,29.84
2022-08-22T15:05:21.312Z,29.77
2022-08-22T15:07:59.535Z,29.70
2022-08-22T15:10:34.277Z,29.62
2022-08-22T15:13:08.078Z,29.56
2022-08-22T15:15:49.458Z,29.51
2022-08-22T15:18:27.721Z,29.46
2022-08-22T15:21:12.881Z,29.44
2022-08-22T15:23:46.805Z,29.42
2022-08-22T15:26:30.817Z,29.38
2022-08-22T15:29:10.618Z,29.33
2022-08-22T15:31:46.769Z,29.27
2022-08-22T15:34:34.574Z,29.20
2022-08-22T15:37:16.503Z,29.13
2022-08-22T15:40:27.332Z,29.06
2022-08-22T15:43:00.174Z,28.97
2022-08-22T15:45:36.055Z,28.91
2022-08-22T15:48:10.711Z,28.85
2022-08-22T15:50:55.056Z,28.79
2022-08-22T15:53:45.787Z,28.71
2022-08-22T15:56:15.430Z,28.62
2022-08-22T15:58:52.759Z,28.56
2022-08-22T16:01:24.710Z,28.50
2022-08-22T16:04:03.120Z,28.43
2022-08-22T16:06:51.411Z,28.35
2022-08-22T16:09:46.624Z,28.28
2022-08-22T16:12:33.006Z,28.22
2022-08-22T16:15:05.395Z,28.14
2022-08-22T16:17:46.017Z,28.07
2022-08-22T16:20:21.300Z,28.00
2022-08-22T16:22:58.804Z,27.94
2022-08-22T16:25:44.971Z,27.89
2022-08-22T16:28:41.413Z,27.87
2022-08-22T16:31:27.722Z,27.80
2022-08-22T16:34:16.498Z,27.64
2022-08-22T16:36:47.393Z,27.47
2022-08-22T16:39:21.459Z,27.34
2022-08-22T16:41:51.855Z,27.18
2022-08-22T16:44:29.219Z,26.99
2022-08-22T16:47:19.484Z,26.82
2022-08-22T16:49:50.518Z,26.65
2022-08-22T16:52:22.387Z,26.51
2022-08-22T16:54:55.112Z,26.39
2022-08-22T16:57:38.154Z,26.29
2022-08-22T17:00:22.799Z,26.17
2022-08-22T17:03:29.235Z,26.04
2022-08-22T17:06:28.704Z,25.92
2022-08-22T17:09:28.020Z,25.82
2022-08-22T17:12:44.131Z,25.73
2022-08-22T17:15:55.335Z,25.62
2022-08-22T17:19:19.537Z,25.57
2022-08-22T17:22:02.378Z,25.51
2022-08-22T17:24:41.242Z,25.49
2022-08-22T17:27:30.404Z,25.41
2022-08-22T17:30:09.362Z,25.26
2022-08-22T17:32:59.760Z,25.12
2022-08-22T17:36:26.566Z,25.00
2022-08-22T17:38:58.521Z,24.92
2022-08-22T17:41:47.351Z,24.88
2022-08-22T17:44:30.225Z,24.75
2022-08-22T17:47:15.039Z,24.65
2022-08-22T17:49:45.117Z,24.60
2022-08-22T17:52:36.716Z,24.54
2022-08-22T17:55:25.771Z,24.49
2022-08-22T17:58:02.754Z,24.43
2022-08-22T18:00:35.941Z,24.37
2022-08-22T18:03:24.603Z,24.29
2022-08-22T18:05:58.817Z,24.28
2022-08-22T18:12:05.994Z,24.16
2022-08-22T18:14:45.517Z,24.13
2022-08-22T18:17:25.883Z,24.11
2022-08-22T18:20:00.176Z,24.07
2022-08-22T18:22:40.156Z,24.04
2022-08-22T18:25:13.761Z,24.02
2022-08-22T18:28:03.570Z,24.02
2022-08-22T18:30:39.006Z,24.02
2022-08-22T18:33:22.980Z,24.02
2022-08-22T18:36:11.084Z,24.01
2022-08-22T18:38:51.886Z,23.98
2022-08-22T18:41:33.203Z,23.95
2022-08-22T18:44:16.495Z,23.81
2022-08-22T18:46:47.921Z,23.58
2022-08-22T18:49:43.402Z,23.35
2022-08-22T18:52:22.006Z,23.15
2022-08-22T18:54:50.074Z,22.95
2022-08-22T18:57:31.025Z,22.77
2022-08-22T19:00:16.931Z,22.64
2022-08-22T19:03:27.277Z,22.54
2022-08-22T19:06:17.280Z,22.36
2022-08-22T19:09:25.373Z,22.21
2022-08-22T19:12:31.483Z,22.13
2022-08-22T19:15:35.450Z,22.12
2022-08-22T19:18:28.683Z,22.14
2022-08-22T19:21:38.695Z,22.06
2022-08-22T19:24:28.827Z,21.94
2022-08-22T19:27:18.737Z,21.76
2022-08-22T19:29:46.898Z,21.55
2022-08-22T19:32:46.498Z,21.42
2022-08-22T19:35:21.950Z,21.36
2022-08-22T19:37:59.669Z,21.32
2022-08-22T19:40:46.526Z,21.27
2022-08-22T19:43:30.290Z,21.21
2022-08-22T19:46:01.239Z,21.15
2022-08-22T19:48:44.713Z,21.10
2022-08-22T19:51:25.336Z,21.12
2022-08-22T19:54:21.939Z,21.12
2022-08-22T19:57:01.228Z,21.13
2022-08-22T20:00:19.914Z,21.02
2022-08-22T20:03:22.242Z,20.72
2022-08-22T20:06:02.139Z,20.55
2022-08-22T20:08:45.317Z,20.38
2022-08-22T20:11:42.801Z,20.22
2022-08-22T20:14:24.993Z,20.25
2022-08-22T20:17:33.830Z,20.25
2022-08-22T20:20:27.938Z,20.26
2022-08-22T20:23:05.359Z,20.21
2022-08-22T20:25:44.212Z,20.22
2022-08-22T20:28:29.880Z,20.21
2022-08-22T20:31:02.381Z,20.24
2022-08-22T20:33:38.047Z,20.26
2022-08-22T20:36:16.738Z,20.28
2022-08-22T20:39:19.798Z,20.29
2022-08-22T20:41:56.545Z,20.28
2022-08-22T20:44:33.238Z,20.27
2022-08-22T20:47:06.178Z,20.27
2022-08-22T20:49:47.361Z,20.25
2022-08-22T20:52:32.672Z,20.22
2022-08-22T20:55:12.248Z,20.12
2022-08-22T20:58:06.171Z,20.02
2022-08-22T21:00:45.598Z,19.99
2022-08-22T21:03:25.216Z,19.97
2022-08-22T21:05:53.295Z,19.97
2022-08-22T21:08:27.072Z,19.93
2022-08-22T21:11:18.990Z,19.92
2022-08-22T21:13:48.648Z,19.89
2022-08-22T21:16:31.415Z,19.90
2022-08-22T21:19:03.828Z,19.84
2022-08-22T21:21:34.477Z,19.83
2022-08-22T21:24:06.494Z,19.80
2022-08-22T21:26:39.443Z,19.81
2022-08-22T21:29:13.596Z,19.93
2022-08-22T21:31:49.420Z,19.97
2022-08-22T21:34:23.976Z,19.94
2022-08-22T21:36:55.434Z,19.96
2022-08-22T21:39:35.736Z,19.99
2022-08-22T21:42:03.795Z,19.97
2022-08-22T21:44:31.890Z,19.95
2022-08-22T21:47:36.329Z,19.95
2022-08-22T21:50:18.994Z,19.98
2022-08-22T21:52:56.099Z,19.98
2022-08-22T21:55:31.830Z,19.97
2022-08-22T21:58:10.478Z,20.00
2022-08-22T22:00:49.562Z,20.04
2022-08-22T22:03:23.119Z,20.04
2022-08-22T22:05:54.929Z,20.06
2022-08-22T22:08:23.565Z,20.07
2022-08-22T22:11:08.366Z,20.09
2022-08-22T22:13:37.454Z,20.05
2022-08-22T22:16:07.621Z,20.01
2022-08-22T22:18:38.209Z,19.99
2022-08-22T22:21:06.846Z,19.97
2022-08-22T22:23:35.495Z,19.97
2022-08-22T22:26:06.130Z,19.93
2022-08-22T22:28:41.067Z,19.88
2022-08-22T22:31:10.107Z,19.89
2022-08-22T22:33:42.622Z,19.88
2022-08-22T22:36:20.138Z,19.86
2022-08-22T22:38:48.815Z,19.86
2022-08-22T22:41:25.327Z,19.83
2022-08-22T22:43:55.375Z,19.79
2022-08-22T22:46:24.405Z,19.81
2022-08-22T22:48:53.188Z,19.79
2022-08-22T22:51:21.550Z,19.79
2022-08-22T22:53:50.009Z,19.82
2022-08-22T22:56:21.734Z,19.81
2022-08-22T22:59:00.630Z,19.78
2022-08-22T23:01:29.487Z,19.77
2022-08-22T23:04:03.330Z,19.75
2022-08-22T23:06:34.779Z,19.74
2022-08-22T23:09:03.392Z,19.73
2022-08-22T23:11:31.564Z,19.74
2022-08-22T23:14:01.661Z,19.72
2022-08-22T23:16:34.003Z,19.69
2022-08-22T23:19:13.637Z,19.66
2022-08-22T23:21:43.031Z,19.67
2022-08-22T23:24:12.048Z,19.64
2022-08-22T23:26:41.207Z,19.63
2022-08-22T23:29:10.732Z,19.66
2022-08-22T23:31:43.870Z,19.66
2022-08-22T23:34:22.824Z,19.64
2022-08-22T23:36:53.522Z,19.63
2022-08-22T23:39:24.221Z,19.63
2022-08-22T23:41:52.771Z,19.61
2022-08-22T23:44:24.342Z,19.55
2022-08-22T23:46:53.349Z,19.54
2022-08-22T23:49:21.736Z,19.52
2022-08-22T23:51:50.544Z,19.50
2022-08-22T23:54:19.155Z,19.48
2022-08-22T23:56:50.644Z,19.47
2022-08-22T23:59:22.586Z,19.48
